sensor_id;sensor_type;location;lat;lon;timestamp;pressure;altitude;pressure_sealevel;temperature;humidity
62164;BME280;48149;51.132;7.178;2022-08-16T00:02:00;97859.22;;;23.65;99.12
62164;BME280;48149;51.132;7.178;2022-08-16T00:04:25;97854.19;;;23.47;100.00
62164;BME280;48149;51.132;7.178;2022-08-16T00:06:52;97858.38;;;23.39;100.00
62164;BME280;48149;51.132;7.178;2022-08-16T00:09:17;97864.84;;;23.64;100.00
62164;BME280;48149;51.132;7.178;2022-08-16T00:11:43;97859.53;;;23.72;100.00
62164;BME280;48149;51.132;7.178;2022-08-16T00:14:11;97868.47;;;23.42;100.00
62164;BME280;48149;51.132;7.178;2022-08-16T00:16:38;97872.56;;;23.74;100.00
62164;BME280;48149;51.132;7.178;2022-08-16T00:19:04;97875.19;;;24.00;98.56
62164;BME280;48149;51.132;7.178;2022-08-16T00:21:30;97871.13;;;23.85;100.00
62164;BME280;48149;51.132;7.178;2022-08-16T00:23:56;97875.06;;;23.62;100.00
62164;BME280;48149;51.132;7.178;2022-08-16T00:26:22;97880.84;;;24.07;97.61
62164;BME280;48149;51.132;7.178;2022-08-16T00:28:47;97891.41;;;23.86;99.02
62164;BME280;48149;51.132;7.178;2022-08-16T00:31:12;97878.03;;;23.86;99.15
62164;BME280;48149;51.132;7.178;2022-08-16T00:33:38;97895.81;;;23.82;99.63
62164;BME280;48149;51.132;7.178;2022-08-16T00:36:03;97884.81;;;23.83;100.00
62164;BME280;48149;51.132;7.178;2022-08-16T00:38:29;97890.28;;;23.96;97.83
62164;BME280;48149;51.132;7.178;2022-08-16T00:40:54;97887.59;;;24.30;96.84
62164;BME280;48149;51.132;7.178;2022-08-16T00:43:31;97896.25;;;24.18;97.28
62164;BME280;48149;51.132;7.178;2022-08-16T00:46:04;97892.94;;;24.21;96.37
62164;BME280;48149;51.132;7.178;2022-08-16T00:48:31;97892.16;;;24.21;97.69
62164;BME280;48149;51.132;7.178;2022-08-16T00:50:57;97894.09;;;23.95;100.00
62164;BME280;48149;51.132;7.178;2022-08-16T00:53:23;97890.28;;;24.04;99.36
62164;BME280;48149;51.132;7.178;2022-08-16T00:55:49;97895.16;;;24.02;98.82
62164;BME280;48149;51.132;7.178;2022-08-16T00:58:16;97906.81;;;23.89;100.00
62164;BME280;48149;51.132;7.178;2022-08-16T01:00:42;97893.59;;;24.01;98.51
62164;BME280;48149;51.132;7.178;2022-08-16T01:03:09;97898.81;;;23.72;100.00
62164;BME280;48149;51.132;7.178;2022-08-16T01:05:35;97896.91;;;23.98;98.38
62164;BME280;48149;51.132;7.178;2022-08-16T01:08:01;97900.22;;;23.78;99.51
62164;BME280;48149;51.132;7.178;2022-08-16T01:10:27;97895.75;;;24.25;96.68
62164;BME280;48149;51.132;7.178;2022-08-16T01:12:54;97897.25;;;23.71;100.00
62164;BME280;48149;51.132;7.178;2022-08-16T01:15:20;97894.19;;;23.12;100.00
62164;BME280;48149;51.132;7.178;2022-08-16T01:17:45;97901.94;;;23.40;100.00
62164;BME280;48149;51.132;7.178;2022-08-16T01:20:11;97892.38;;;23.64;100.00
62164;BME280;48149;51.132;7.178;2022-08-16T01:22:49;97885.00;;;23.53;100.00
62164;BME280;48149;51.132;7.178;2022-08-16T01:25:30;97887.66;;;23.61;100.00
62164;BME280;48149;51.132;7.178;2022-08-16T01:27:59;97884.59;;;23.20;100.00
62164;BME280;48149;51.132;7.178;2022-08-16T01:30:30;97884.50;;;23.42;100.00
62164;BME280;48149;51.132;7.178;2022-08-16T01:32:59;97882.78;;;23.55;100.00
62164;BME280;48149;51.132;7.178;2022-08-16T01:37:55;97891.56;;;23.38;100.00
62164;BME280;48149;51.132;7.178;2022-08-16T01:40:22;97879.44;;;23.23;100.00
62164;BME280;48149;51.132;7.178;2022-08-16T01:42:51;97882.91;;;23.24;100.00
62164;BME280;48149;51.132;7.178;2022-08-16T01:45:17;97877.34;;;22.95;100.00
62164;BME280;48149;51.132;7.178;2022-08-16T01:47:43;97881.53;;;23.44;100.00
62164;BME280;48149;51.132;7.178;2022-08-16T01:50:09;97877.72;;;23.27;100.00
62164;BME280;48149;51.132;7.178;2022-08-16T01:52:35;97867.66;;;23.16;100.00
62164;BME280;48149;51.132;7.178;2022-08-16T01:55:00;97866.31;;;22.79;100.00
62164;BME280;48149;51.132;7.178;2022-08-16T01:57:26;97875.84;;;22.63;100.00
62164;BME280;48149;51.132;7.178;2022-08-16T01:59:52;97865.84;;;22.77;100.00
62164;BME280;48149;51.132;7.178;2022-08-16T02:02:17;97865.28;;;22.58;100.00
62164;BME280;48149;51.132;7.178;2022-08-16T02:04:43;97871.47;;;22.67;100.00
62164;BME280;48149;51.132;7.178;2022-08-16T02:07:08;97878.88;;;22.48;100.00
62164;BME280;48149;51.132;7.178;2022-08-16T02:09:35;97875.25;;;22.66;100.00
62164;BME280;48149;51.132;7.178;2022-08-16T02:12:02;97877.34;;;22.47;100.00
62164;BME280;48149;51.132;7.178;2022-08-16T02:14:31;97874.28;;;22.31;100.00
62164;BME280;48149;51.132;7.178;2022-08-16T02:16:57;97881.00;;;22.28;100.00
62164;BME280;48149;51.132;7.178;2022-08-16T02:19:24;97887.34;;;22.41;100.00
62164;BME280;48149;51.132;7.178;2022-08-16T02:21:51;97880.91;;;22.42;100.00
62164;BME280;48149;51.132;7.178;2022-08-16T02:24:18;97893.09;;;22.34;100.00
62164;BME280;48149;51.132;7.178;2022-08-16T02:26:43;97886.47;;;22.23;100.00
62164;BME280;48149;51.132;7.178;2022-08-16T02:29:09;97888.34;;;22.23;100.00
62164;BME280;48149;51.132;7.178;2022-08-16T02:31:34;97882.63;;;22.07;100.00
62164;BME280;48149;51.132;7.178;2022-08-16T02:33:59;97881.59;;;21.95;100.00
62164;BME280;48149;51.132;7.178;2022-08-16T02:36:26;97881.41;;;22.13;100.00
62164;BME280;48149;51.132;7.178;2022-08-16T02:38:51;97875.22;;;22.04;100.00
62164;BME280;48149;51.132;7.178;2022-08-16T02:41:18;97877.66;;;21.92;100.00
62164;BME280;48149;51.132;7.178;2022-08-16T02:43:45;97874.41;;;21.95;100.00
62164;BME280;48149;51.132;7.178;2022-08-16T02:46:11;97882.84;;;21.75;100.00
62164;BME280;48149;51.132;7.178;2022-08-16T02:48:39;97884.53;;;21.49;100.00
62164;BME280;48149;51.132;7.178;2022-08-16T02:51:05;97880.69;;;21.77;100.00
62164;BME280;48149;51.132;7.178;2022-08-16T02:53:32;97874.88;;;21.97;100.00
62164;BME280;48149;51.132;7.178;2022-08-16T02:55:57;97878.53;;;21.65;100.00
62164;BME280;48149;51.132;7.178;2022-08-16T02:58:23;97876.47;;;21.40;100.00
62164;BME280;48149;51.132;7.178;2022-08-16T03:00:48;97873.38;;;21.47;100.00
62164;BME280;48149;51.132;7.178;2022-08-16T03:03:14;97883.22;;;21.24;100.00
62164;BME280;48149;51.132;7.178;2022-08-16T03:05:39;97874.22;;;21.56;100.00
62164;BME280;48149;51.132;7.178;2022-08-16T03:08:05;97873.06;;;21.62;100.00
62164;BME280;48149;51.132;7.178;2022-08-16T03:10:30;97878.53;;;21.43;100.00
62164;BME280;48149;51.132;7.178;2022-08-16T03:12:57;97872.25;;;21.39;100.00
62164;BME280;48149;51.132;7.178;2022-08-16T03:15:23;97875.69;;;21.40;100.00
62164;BME280;48149;51.132;7.178;2022-08-16T03:17:49;97874.13;;;21.25;100.00
62164;BME280;48149;51.132;7.178;2022-08-16T03:20:15;97868.81;;;21.61;100.00
62164;BME280;48149;51.132;7.178;2022-08-16T03:22:41;97874.34;;;21.28;100.00
62164;BME280;48149;51.132;7.178;2022-08-16T03:25:07;97877.53;;;21.17;100.00
62164;BME280;48149;51.132;7.178;2022-08-16T03:27:33;97887.88;;;21.05;100.00
62164;BME280;48149;51.132;7.178;2022-08-16T03:30:00;97883.94;;;21.16;100.00
62164;BME280;48149;51.132;7.178;2022-08-16T03:32:26;97886.50;;;21.43;100.00
62164;BME280;48149;51.132;7.178;2022-08-16T03:34:51;97889.50;;;21.28;100.00
62164;BME280;48149;51.132;7.178;2022-08-16T03:37:17;97891.13;;;21.02;100.00
62164;BME280;48149;51.132;7.178;2022-08-16T03:39:42;97893.94;;;21.33;100.00
62164;BME280;48149;51.132;7.178;2022-08-16T03:42:07;97890.53;;;21.54;100.00
62164;BME280;48149;51.132;7.178;2022-08-16T03:44:32;97890.13;;;21.25;100.00
62164;BME280;48149;51.132;7.178;2022-08-16T03:46:58;97897.03;;;21.12;100.00
62164;BME280;48149;51.132;7.178;2022-08-16T03:49:23;97882.25;;;20.93;100.00
62164;BME280;48149;51.132;7.178;2022-08-16T03:51:48;97896.03;;;21.22;100.00
62164;BME280;48149;51.132;7.178;2022-08-16T03:54:14;97892.28;;;21.23;100.00
62164;BME280;48149;51.132;7.178;2022-08-16T03:56:40;97906.13;;;21.11;100.00
62164;BME280;48149;51.132;7.178;2022-08-16T03:59:05;97897.44;;;20.79;100.00
62164;BME280;48149;51.132;7.178;2022-08-16T04:01:31;97904.69;;;21.27;100.00
62164;BME280;48149;51.132;7.178;2022-08-16T04:03:57;97897.03;;;21.26;100.00
62164;BME280;48149;51.132;7.178;2022-08-16T04:06:22;97894.66;;;21.24;100.00
62164;BME280;48149;51.132;7.178;2022-08-16T04:08:48;97892.56;;;21.35;100.00
62164;BME280;48149;51.132;7.178;2022-08-16T04:11:14;97887.19;;;21.13;100.00
62164;BME280;48149;51.132;7.178;2022-08-16T04:13:39;97889.72;;;21.32;100.00
62164;BME280;48149;51.132;7.178;2022-08-16T04:16:05;97892.88;;;21.34;100.00
62164;BME280;48149;51.132;7.178;2022-08-16T04:18:31;97899.06;;;21.43;100.00
62164;BME280;48149;51.132;7.178;2022-08-16T04:20:56;97902.16;;;20.95;100.00
62164;BME280;48149;51.132;7.178;2022-08-16T04:23:22;97899.69;;;21.26;100.00
62164;BME280;48149;51.132;7.178;2022-08-16T04:25:47;97905.19;;;21.02;100.00
62164;BME280;48149;51.132;7.178;2022-08-16T04:28:13;97908.88;;;20.79;100.00
62164;BME280;48149;51.132;7.178;2022-08-16T04:30:38;97916.41;;;21.40;100.00
62164;BME280;48149;51.132;7.178;2022-08-16T04:33:04;97916.13;;;21.42;100.00
62164;BME280;48149;51.132;7.178;2022-08-16T04:35:29;97917.91;;;21.33;100.00
62164;BME280;48149;51.132;7.178;2022-08-16T04:37:54;97921.66;;;21.32;100.00
62164;BME280;48149;51.132;7.178;2022-08-16T04:40:20;97914.75;;;21.31;100.00
62164;BME280;48149;51.132;7.178;2022-08-16T04:42:46;97917.50;;;21.39;100.00
62164;BME280;48149;51.132;7.178;2022-08-16T04:45:14;97924.56;;;21.44;100.00
62164;BME280;48149;51.132;7.178;2022-08-16T04:47:40;97918.53;;;21.16;100.00
62164;BME280;48149;51.132;7.178;2022-08-16T04:50:09;97923.00;;;21.78;100.00
62164;BME280;48149;51.132;7.178;2022-08-16T04:52:35;97923.28;;;21.55;100.00
62164;BME280;48149;51.132;7.178;2022-08-16T04:55:08;97922.44;;;21.32;100.00
62164;BME280;48149;51.132;7.178;2022-08-16T04:57:36;97926.94;;;21.59;100.00
62164;BME280;48149;51.132;7.178;2022-08-16T05:00:02;97929.63;;;21.45;100.00
62164;BME280;48149;51.132;7.178;2022-08-16T05:02:27;97930.22;;;21.42;100.00
62164;BME280;48149;51.132;7.178;2022-08-16T05:04:55;97926.69;;;21.69;100.00
62164;BME280;48149;51.132;7.178;2022-08-16T05:07:20;97933.06;;;22.04;100.00
62164;BME280;48149;51.132;7.178;2022-08-16T05:09:45;97936.13;;;21.89;100.00
62164;BME280;48149;51.132;7.178;2022-08-16T05:12:10;97930.78;;;21.89;100.00
62164;BME280;48149;51.132;7.178;2022-08-16T05:14:35;97934.38;;;21.70;100.00
62164;BME280;48149;51.132;7.178;2022-08-16T05:17:02;97942.81;;;21.86;100.00
62164;BME280;48149;51.132;7.178;2022-08-16T05:19:27;97940.28;;;22.25;100.00
62164;BME280;48149;51.132;7.178;2022-08-16T05:21:52;97950.09;;;21.94;100.00
62164;BME280;48149;51.132;7.178;2022-08-16T05:24:18;97941.38;;;22.24;100.00
62164;BME280;48149;51.132;7.178;2022-08-16T05:26:43;97948.38;;;22.12;100.00
62164;BME280;48149;51.132;7.178;2022-08-16T05:29:09;97952.69;;;22.30;100.00
62164;BME280;48149;51.132;7.178;2022-08-16T05:31:34;97949.28;;;22.38;100.00
62164;BME280;48149;51.132;7.178;2022-08-16T05:34:01;97951.59;;;22.53;100.00
62164;BME280;48149;51.132;7.178;2022-08-16T05:36:27;97948.31;;;22.87;100.00
62164;BME280;48149;51.132;7.178;2022-08-16T05:38:53;97956.94;;;22.84;100.00
62164;BME280;48149;51.132;7.178;2022-08-16T05:41:19;97946.81;;;22.72;100.00
62164;BME280;48149;51.132;7.178;2022-08-16T05:43:45;97944.41;;;22.93;100.00
62164;BME280;48149;51.132;7.178;2022-08-16T05:46:11;97956.81;;;22.98;100.00
62164;BME280;48149;51.132;7.178;2022-08-16T05:48:37;97956.56;;;22.77;100.00
62164;BME280;48149;51.132;7.178;2022-08-16T05:51:02;97958.16;;;22.78;100.00
62164;BME280;48149;51.132;7.178;2022-08-16T05:53:27;97952.69;;;22.83;100.00
62164;BME280;48149;51.132;7.178;2022-08-16T05:55:53;97946.00;;;23.03;100.00
62164;BME280;48149;51.132;7.178;2022-08-16T05:58:19;97953.41;;;23.23;100.00
62164;BME280;48149;51.132;7.178;2022-08-16T06:00:45;97959.72;;;23.27;100.00
62164;BME280;48149;51.132;7.178;2022-08-16T06:03:10;97953.59;;;23.26;100.00
62164;BME280;48149;51.132;7.178;2022-08-16T06:05:36;97951.66;;;23.66;97.94
62164;BME280;48149;51.132;7.178;2022-08-16T06:08:02;97953.50;;;23.49;97.57
62164;BME280;48149;51.132;7.178;2022-08-16T06:10:27;97965.31;;;23.82;96.07
62164;BME280;48149;51.132;7.178;2022-08-16T06:12:53;97953.84;;;23.73;97.41
62164;BME280;48149;51.132;7.178;2022-08-16T06:15:19;97957.13;;;24.21;92.83
62164;BME280;48149;51.132;7.178;2022-08-16T06:17:45;97953.06;;;23.98;94.94
62164;BME280;48149;51.132;7.178;2022-08-16T06:20:12;97962.50;;;24.04;95.41
62164;BME280;48149;51.132;7.178;2022-08-16T06:22:38;97958.22;;;24.03;95.72
62164;BME280;48149;51.132;7.178;2022-08-16T06:25:04;97963.09;;;24.35;92.13
62164;BME280;48149;51.132;7.178;2022-08-16T06:27:30;97964.22;;;24.00;96.30
62164;BME280;48149;51.132;7.178;2022-08-16T06:29:55;97966.19;;;24.55;90.97
62164;BME280;48149;51.132;7.178;2022-08-16T06:32:21;97970.94;;;24.40;92.56
62164;BME280;48149;51.132;7.178;2022-08-16T06:34:46;97967.31;;;24.45;94.62
62164;BME280;48149;51.132;7.178;2022-08-16T06:37:11;97965.00;;;24.26;94.52
62164;BME280;48149;51.132;7.178;2022-08-16T06:39:37;97962.88;;;24.49;92.73
62164;BME280;48149;51.132;7.178;2022-08-16T06:42:02;97965.75;;;24.99;89.60
62164;BME280;48149;51.132;7.178;2022-08-16T06:44:27;97967.22;;;24.79;90.80
62164;BME280;48149;51.132;7.178;2022-08-16T06:46:53;97968.09;;;25.01;89.17
62164;BME280;48149;51.132;7.178;2022-08-16T06:49:18;97978.19;;;24.40;90.62
62164;BME280;48149;51.132;7.178;2022-08-16T06:51:43;97972.50;;;24.97;88.30
62164;BME280;48149;51.132;7.178;2022-08-16T06:54:09;97980.63;;;25.17;86.74
62164;BME280;48149;51.132;7.178;2022-08-16T06:56:36;97974.75;;;25.24;86.54
62164;BME280;48149;51.132;7.178;2022-08-16T06:59:01;97982.22;;;25.10;90.20
62164;BME280;48149;51.132;7.178;2022-08-16T07:01:27;97982.34;;;25.51;85.66
62164;BME280;48149;51.132;7.178;2022-08-16T07:03:52;97994.88;;;25.01;88.44
62164;BME280;48149;51.132;7.178;2022-08-16T07:06:18;97989.69;;;25.33;87.62
62164;BME280;48149;51.132;7.178;2022-08-16T07:08:44;97992.53;;;25.28;86.70
62164;BME280;48149;51.132;7.178;2022-08-16T07:11:10;98000.28;;;25.59;85.11
62164;BME280;48149;51.132;7.178;2022-08-16T07:13:36;98004.78;;;25.00;89.46
62164;BME280;48149;51.132;7.178;2022-08-16T07:16:02;97998.75;;;25.41;87.03
62164;BME280;48149;51.132;7.178;2022-08-16T07:18:27;98004.88;;;26.00;82.95
62164;BME280;48149;51.132;7.178;2022-08-16T07:20:53;98005.50;;;25.97;83.19
62164;BME280;48149;51.132;7.178;2022-08-16T07:23:19;98007.94;;;26.31;82.00
62164;BME280;48149;51.132;7.178;2022-08-16T07:25:44;98005.19;;;25.48;86.24
62164;BME280;48149;51.132;7.178;2022-08-16T07:28:11;98008.72;;;25.90;83.03
62164;BME280;48149;51.132;7.178;2022-08-16T07:30:37;98008.94;;;26.39;82.14
62164;BME280;48149;51.132;7.178;2022-08-16T07:33:03;98019.25;;;26.37;80.35
62164;BME280;48149;51.132;7.178;2022-08-16T07:35:31;98017.09;;;26.30;81.55
62164;BME280;48149;51.132;7.178;2022-08-16T07:38:03;98023.03;;;26.15;83.23
62164;BME280;48149;51.132;7.178;2022-08-16T07:40:28;98025.03;;;25.56;86.43
62164;BME280;48149;51.132;7.178;2022-08-16T07:42:53;98030.22;;;25.61;87.79
62164;BME280;48149;51.132;7.178;2022-08-16T07:45:19;98031.88;;;26.36;83.56
62164;BME280;48149;51.132;7.178;2022-08-16T07:47:44;98034.16;;;26.05;84.45
62164;BME280;48149;51.132;7.178;2022-08-16T07:50:12;98031.66;;;25.79;86.41
62164;BME280;48149;51.132;7.178;2022-08-16T07:52:38;98030.09;;;26.40;80.46
62164;BME280;48149;51.132;7.178;2022-08-16T07:55:04;98037.31;;;26.61;81.92
62164;BME280;48149;51.132;7.178;2022-08-16T07:57:29;98036.09;;;26.25;84.16
62164;BME280;48149;51.132;7.178;2022-08-16T07:59:56;98041.72;;;26.77;80.11
62164;BME280;48149;51.132;7.178;2022-08-16T08:02:22;98033.59;;;26.20;81.86
62164;BME280;48149;51.132;7.178;2022-08-16T08:04:47;98035.34;;;25.95;84.84
62164;BME280;48149;51.132;7.178;2022-08-16T08:07:13;98034.06;;;26.88;79.07
62164;BME280;48149;51.132;7.178;2022-08-16T08:09:38;98034.66;;;27.30;77.72
62164;BME280;48149;51.132;7.178;2022-08-16T08:12:04;98031.16;;;27.17;78.23
62164;BME280;48149;51.132;7.178;2022-08-16T08:14:30;98036.00;;;27.12;76.41
62164;BME280;48149;51.132;7.178;2022-08-16T08:16:56;98039.81;;;27.59;74.19
62164;BME280;48149;51.132;7.178;2022-08-16T08:19:22;98034.28;;;27.92;72.80
62164;BME280;48149;51.132;7.178;2022-08-16T08:21:47;98036.59;;;27.53;73.67
62164;BME280;48149;51.132;7.178;2022-08-16T08:24:13;98035.19;;;27.23;75.24
62164;BME280;48149;51.132;7.178;2022-08-16T08:26:39;98036.06;;;28.00;71.47
62164;BME280;48149;51.132;7.178;2022-08-16T08:29:05;98037.34;;;27.18;76.12
62164;BME280;48149;51.132;7.178;2022-08-16T08:31:31;98035.25;;;28.12;73.64
62164;BME280;48149;51.132;7.178;2022-08-16T08:34:03;98038.41;;;28.01;73.17
62164;BME280;48149;51.132;7.178;2022-08-16T08:36:30;98035.59;;;28.38;70.59
62164;BME280;48149;51.132;7.178;2022-08-16T08:38:56;98049.06;;;27.98;71.41
62164;BME280;48149;51.132;7.178;2022-08-16T08:41:22;98046.56;;;28.17;72.66
62164;BME280;48149;51.132;7.178;2022-08-16T08:43:57;98041.47;;;27.15;76.07
62164;BME280;48149;51.132;7.178;2022-08-16T08:46:23;98039.84;;;27.99;71.96
62164;BME280;48149;51.132;7.178;2022-08-16T08:48:50;98043.78;;;28.01;73.65
62164;BME280;48149;51.132;7.178;2022-08-16T08:51:16;98051.47;;;28.83;68.23
62164;BME280;48149;51.132;7.178;2022-08-16T08:53:42;98050.78;;;28.86;68.71
62164;BME280;48149;51.132;7.178;2022-08-16T08:56:08;98058.72;;;28.67;69.11
62164;BME280;48149;51.132;7.178;2022-08-16T08:58:33;98060.63;;;28.66;69.68
62164;BME280;48149;51.132;7.178;2022-08-16T09:01:03;98066.16;;;29.17;67.86
62164;BME280;48149;51.132;7.178;2022-08-16T09:03:30;98064.97;;;29.14;67.77
62164;BME280;48149;51.132;7.178;2022-08-16T09:05:57;98079.41;;;28.50;67.64
62164;BME280;48149;51.132;7.178;2022-08-16T09:08:23;98066.31;;;28.77;68.18
62164;BME280;48149;51.132;7.178;2022-08-16T09:10:54;98076.81;;;29.25;65.85
62164;BME280;48149;51.132;7.178;2022-08-16T09:13:21;98076.53;;;29.61;66.05
62164;BME280;48149;51.132;7.178;2022-08-16T09:15:47;98072.84;;;29.70;65.70
62164;BME280;48149;51.132;7.178;2022-08-16T09:18:13;98074.06;;;29.88;63.14
62164;BME280;48149;51.132;7.178;2022-08-16T09:20:40;98069.44;;;29.88;62.26
62164;BME280;48149;51.132;7.178;2022-08-16T09:23:05;98083.31;;;29.55;62.70
62164;BME280;48149;51.132;7.178;2022-08-16T09:25:30;98079.81;;;29.08;66.18
62164;BME280;48149;51.132;7.178;2022-08-16T09:27:56;98077.16;;;30.05;61.37
62164;BME280;48149;51.132;7.178;2022-08-16T09:30:21;98076.28;;;29.51;63.95
62164;BME280;48149;51.132;7.178;2022-08-16T09:32:48;98075.31;;;30.48;60.37
62164;BME280;48149;51.132;7.178;2022-08-16T09:35:13;98073.69;;;30.24;60.52
62164;BME280;48149;51.132;7.178;2022-08-16T09:37:38;98070.69;;;30.67;56.45
62164;BME280;48149;51.132;7.178;2022-08-16T09:40:07;98066.75;;;32.35;52.53
62164;BME280;48149;51.132;7.178;2022-08-16T09:42:33;98072.69;;;32.77;48.04
62164;BME280;48149;51.132;7.178;2022-08-16T09:44:58;98077.22;;;35.19;42.44
62164;BME280;48149;51.132;7.178;2022-08-16T09:47:24;98074.13;;;35.63;38.70
62164;BME280;48149;51.132;7.178;2022-08-16T09:49:51;98071.75;;;35.76;39.33
62164;BME280;48149;51.132;7.178;2022-08-16T09:52:17;98074.34;;;37.57;33.95
62164;BME280;48149;51.132;7.178;2022-08-16T09:54:42;98075.66;;;35.50;36.96
62164;BME280;48149;51.132;7.178;2022-08-16T09:57:07;98062.69;;;37.01;35.77
62164;BME280;48149;51.132;7.178;2022-08-16T09:59:32;98067.28;;;37.11;35.76
62164;BME280;48149;51.132;7.178;2022-08-16T10:01:58;98065.53;;;35.82;37.54
62164;BME280;48149;51.132;7.178;2022-08-16T10:04:25;98065.13;;;37.81;34.35
62164;BME280;48149;51.132;7.178;2022-08-16T10:06:54;98058.94;;;39.48;31.26
62164;BME280;48149;51.132;7.178;2022-08-16T10:09:20;98055.16;;;39.42;31.34
62164;BME280;48149;51.132;7.178;2022-08-16T10:11:47;98062.25;;;36.37;35.21
62164;BME280;48149;51.132;7.178;2022-08-16T10:14:31;98057.91;;;37.16;35.71
62164;BME280;48149;51.132;7.178;2022-08-16T10:16:57;98063.16;;;39.76;31.46
62164;BME280;48149;51.132;7.178;2022-08-16T10:19:24;98070.72;;;40.31;28.99
62164;BME280;48149;51.132;7.178;2022-08-16T10:21:49;98065.91;;;37.81;32.92
62164;BME280;48149;51.132;7.178;2022-08-16T10:24:15;98052.38;;;36.68;33.98
62164;BME280;48149;51.132;7.178;2022-08-16T10:26:40;98065.69;;;39.67;29.25
62164;BME280;48149;51.132;7.178;2022-08-16T10:29:07;98062.81;;;39.51;29.63
62164;BME280;48149;51.132;7.178;2022-08-16T10:31:34;98062.59;;;38.01;31.03
62164;BME280;48149;51.132;7.178;2022-08-16T10:34:00;98063.53;;;39.97;29.27
62164;BME280;48149;51.132;7.178;2022-08-16T10:36:32;98066.19;;;39.81;29.17
62164;BME280;48149;51.132;7.178;2022-08-16T10:38:58;98064.50;;;37.66;33.26
62164;BME280;48149;51.132;7.178;2022-08-16T10:41:25;98066.34;;;39.74;29.35
62164;BME280;48149;51.132;7.178;2022-08-16T10:43:50;98066.53;;;39.14;30.68
62164;BME280;48149;51.132;7.178;2022-08-16T10:46:16;98063.47;;;39.58;28.35
62164;BME280;48149;51.132;7.178;2022-08-16T10:48:42;98059.38;;;39.89;27.84
62164;BME280;48149;51.132;7.178;2022-08-16T10:51:09;98064.31;;;41.09;26.92
62164;BME280;48149;51.132;7.178;2022-08-16T10:53:35;98069.84;;;39.28;28.18
62164;BME280;48149;51.132;7.178;2022-08-16T10:56:01;98067.84;;;39.56;27.26
62164;BME280;48149;51.132;7.178;2022-08-16T10:58:27;98065.97;;;37.74;29.62
62164;BME280;48149;51.132;7.178;2022-08-16T11:00:53;98067.13;;;39.02;28.18
62164;BME280;48149;51.132;7.178;2022-08-16T11:03:19;98070.66;;;40.70;25.93
62164;BME280;48149;51.132;7.178;2022-08-16T11:05:44;98072.69;;;41.34;26.28
62164;BME280;48149;51.132;7.178;2022-08-16T11:08:17;98073.31;;;43.20;23.61
62164;BME280;48149;51.132;7.178;2022-08-16T11:10:43;98068.59;;;40.58;26.49
62164;BME280;48149;51.132;7.178;2022-08-16T11:13:10;98068.91;;;42.60;25.14
62164;BME280;48149;51.132;7.178;2022-08-16T11:15:37;98062.41;;;41.22;25.15
62164;BME280;48149;51.132;7.178;2022-08-16T11:18:04;98069.81;;;41.70;24.25
62164;BME280;48149;51.132;7.178;2022-08-16T11:20:29;98068.94;;;39.58;25.85
62164;BME280;48149;51.132;7.178;2022-08-16T11:22:54;98069.53;;;41.36;24.86
62164;BME280;48149;51.132;7.178;2022-08-16T11:25:21;98066.97;;;40.96;24.30
62164;BME280;48149;51.132;7.178;2022-08-16T11:27:47;98061.28;;;43.27;22.43
62164;BME280;48149;51.132;7.178;2022-08-16T11:30:13;98062.59;;;41.76;24.22
62164;BME280;48149;51.132;7.178;2022-08-16T11:32:45;98075.81;;;40.48;27.13
62164;BME280;48149;51.132;7.178;2022-08-16T11:35:16;98065.72;;;43.93;22.44
62164;BME280;48149;51.132;7.178;2022-08-16T11:37:47;98076.16;;;40.15;26.75
62164;BME280;48149;51.132;7.178;2022-08-16T11:40:15;98068.44;;;42.07;24.56
62164;BME280;48149;51.132;7.178;2022-08-16T11:42:40;98068.00;;;42.09;23.71
62164;BME280;48149;51.132;7.178;2022-08-16T11:45:07;98069.56;;;40.12;25.50
62164;BME280;48149;51.132;7.178;2022-08-16T11:47:34;98067.66;;;39.43;26.18
62164;BME280;48149;51.132;7.178;2022-08-16T11:49:59;98068.84;;;40.99;24.45
62164;BME280;48149;51.132;7.178;2022-08-16T11:52:29;98062.97;;;41.62;24.33
62164;BME280;48149;51.132;7.178;2022-08-16T11:54:54;98061.69;;;43.72;21.66
62164;BME280;48149;51.132;7.178;2022-08-16T11:57:19;98066.25;;;42.94;22.87
62164;BME280;48149;51.132;7.178;2022-08-16T11:59:44;98062.97;;;41.62;24.34
62164;BME280;48149;51.132;7.178;2022-08-16T12:02:12;98068.09;;;39.84;26.60
62164;BME280;48149;51.132;7.178;2022-08-16T12:04:37;98054.03;;;41.58;25.07
62164;BME280;48149;51.132;7.178;2022-08-16T12:07:04;98062.84;;;42.52;23.46
62164;BME280;48149;51.132;7.178;2022-08-16T12:09:29;98064.63;;;44.95;21.74
62164;BME280;48149;51.132;7.178;2022-08-16T12:11:55;98060.44;;;42.67;23.87
62164;BME280;48149;51.132;7.178;2022-08-16T12:14:22;98065.84;;;42.95;21.22
62164;BME280;48149;51.132;7.178;2022-08-16T12:16:47;98062.34;;;44.63;20.39
62164;BME280;48149;51.132;7.178;2022-08-16T12:19:13;98058.78;;;45.70;20.15
62164;BME280;48149;51.132;7.178;2022-08-16T12:21:38;98056.81;;;42.16;23.77
62164;BME280;48149;51.132;7.178;2022-08-16T12:24:04;98055.19;;;44.44;21.26
62164;BME280;48149;51.132;7.178;2022-08-16T12:26:31;98049.88;;;41.37;24.08
62164;BME280;48149;51.132;7.178;2022-08-16T12:28:59;98061.34;;;41.48;23.24
62164;BME280;48149;51.132;7.178;2022-08-16T12:31:26;98058.25;;;38.33;26.40
62164;BME280;48149;51.132;7.178;2022-08-16T12:33:52;98059.28;;;37.38;28.11
62164;BME280;48149;51.132;7.178;2022-08-16T12:36:17;98049.53;;;36.82;30.25
62164;BME280;48149;51.132;7.178;2022-08-16T12:38:43;98053.63;;;39.14;27.69
62164;BME280;48149;51.132;7.178;2022-08-16T12:41:09;98055.03;;;38.72;28.35
62164;BME280;48149;51.132;7.178;2022-08-16T12:43:34;98057.41;;;41.49;25.28
62164;BME280;48149;51.132;7.178;2022-08-16T12:46:00;98052.13;;;43.42;22.32
62164;BME280;48149;51.132;7.178;2022-08-16T12:48:28;98050.25;;;43.74;22.05
62164;BME280;48149;51.132;7.178;2022-08-16T12:51:13;98050.75;;;44.46;21.25
62164;BME280;48149;51.132;7.178;2022-08-16T12:53:39;98061.31;;;43.61;21.50